sensor_id;sensor_type;location;lat;lon;timestamp;P1;durP1;ratioP1;P2;durP2;ratioP2
55288;SDS011;41154;45.394;5.734;2022-09-27T00:02:03;1.60;;;1.17;;
55288;SDS011;41154;45.394;5.734;2022-09-27T00:04:29;1.95;;;1.17;;
55288;SDS011;41154;45.394;5.734;2022-09-27T00:06:55;2.15;;;1.25;;
55288;SDS011;41154;45.394;5.734;2022-09-27T00:09:20;1.20;;;0.93;;
55288;SDS011;41154;45.394;5.734;2022-09-27T00:11:46;2.38;;;1.23;;
55288;SDS011;41154;45.394;5.734;2022-09-27T00:14:12;2.55;;;1.00;;
55288;SDS011;41154;45.394;5.734;2022-09-27T00:16:40;4.43;;;1.33;;
55288;SDS011;41154;45.394;5.734;2022-09-27T00:19:09;1.42;;;0.90;;
55288;SDS011;41154;45.394;5.734;2022-09-27T00:21:38;3.05;;;1.13;;
55288;SDS011;41154;45.394;5.734;2022-09-27T00:24:04;1.15;;;0.90;;
55288;SDS011;41154;45.394;5.734;2022-09-27T00:26:30;1.92;;;1.38;;
55288;SDS011;41154;45.394;5.734;2022-09-27T00:28:56;1.17;;;0.90;;
55288;SDS011;41154;45.394;5.734;2022-09-27T00:31:23;2.05;;;1.25;;
55288;SDS011;41154;45.394;5.734;2022-09-27T00:33:56;1.70;;;1.13;;
55288;SDS011;41154;45.394;5.734;2022-09-27T00:36:24;1.27;;;1.00;;
55288;SDS011;41154;45.394;5.734;2022-09-27T00:38:52;2.15;;;1.05;;
55288;SDS011;41154;45.394;5.734;2022-09-27T00:41:20;2.38;;;1.17;;
55288;SDS011;41154;45.394;5.734;2022-09-27T00:43:47;1.65;;;1.10;;
55288;SDS011;41154;45.394;5.734;2022-09-27T00:46:49;3.65;;;1.02;;
55288;SDS011;41154;45.394;5.734;2022-09-27T00:51:42;1.58;;;1.17;;
55288;SDS011;41154;45.394;5.734;2022-09-27T00:54:13;1.75;;;1.05;;
55288;SDS011;41154;45.394;5.734;2022-09-27T00:56:42;5.90;;;1.90;;
55288;SDS011;41154;45.394;5.734;2022-09-27T00:59:21;3.45;;;1.52;;
55288;SDS011;41154;45.394;5.734;2022-09-27T01:01:51;2.58;;;1.60;;
55288;SDS011;41154;45.394;5.734;2022-09-27T01:04:18;1.50;;;1.20;;
55288;SDS011;41154;45.394;5.734;2022-09-27T01:06:49;2.00;;;1.20;;
55288;SDS011;41154;45.394;5.734;2022-09-27T01:09:15;1.40;;;0.85;;
55288;SDS011;41154;45.394;5.734;2022-09-27T01:11:47;1.20;;;0.98;;
55288;SDS011;41154;45.394;5.734;2022-09-27T01:31:26;1.63;;;1.05;;
55288;SDS011;41154;45.394;5.734;2022-09-27T01:34:00;1.02;;;0.85;;
55288;SDS011;41154;45.394;5.734;2022-09-27T01:36:42;2.70;;;1.08;;
55288;SDS011;41154;45.394;5.734;2022-09-27T01:39:22;1.92;;;0.95;;
55288;SDS011;41154;45.394;5.734;2022-09-27T01:42:25;1.45;;;1.17;;
55288;SDS011;41154;45.394;5.734;2022-09-27T01:48:13;2.88;;;1.20;;
55288;SDS011;41154;45.394;5.734;2022-09-27T01:50:56;2.33;;;1.17;;
55288;SDS011;41154;45.394;5.734;2022-09-27T01:53:47;2.30;;;1.35;;
55288;SDS011;41154;45.394;5.734;2022-09-27T01:56:47;1.90;;;1.40;;
55288;SDS011;41154;45.394;5.734;2022-09-27T01:59:32;4.30;;;1.50;;
55288;SDS011;41154;45.394;5.734;2022-09-27T02:02:33;1.08;;;0.98;;
55288;SDS011;41154;45.394;5.734;2022-09-27T02:05:29;3.88;;;1.48;;
55288;SDS011;41154;45.394;5.734;2022-09-27T02:08:22;3.15;;;1.70;;
55288;SDS011;41154;45.394;5.734;2022-09-27T02:11:11;5.85;;;2.33;;
55288;SDS011;41154;45.394;5.734;2022-09-27T02:13:49;3.20;;;1.90;;
55288;SDS011;41154;45.394;5.734;2022-09-27T02:16:49;1.70;;;1.10;;
55288;SDS011;41154;45.394;5.734;2022-09-27T02:24:52;1.73;;;1.17;;
55288;SDS011;41154;45.394;5.734;2022-09-27T02:29:55;2.10;;;0.80;;
55288;SDS011;41154;45.394;5.734;2022-09-27T02:32:26;4.65;;;1.00;;
55288;SDS011;41154;45.394;5.734;2022-09-27T02:34:52;1.00;;;0.85;;
55288;SDS011;41154;45.394;5.734;2022-09-27T02:37:22;3.70;;;1.65;;
55288;SDS011;41154;45.394;5.734;2022-09-27T02:39:48;3.33;;;1.65;;
55288;SDS011;41154;45.394;5.734;2022-09-27T02:42:13;1.70;;;1.30;;
55288;SDS011;41154;45.394;5.734;2022-09-27T02:44:41;5.20;;;2.08;;
55288;SDS011;41154;45.394;5.734;2022-09-27T02:50:08;2.33;;;1.20;;
55288;SDS011;41154;45.394;5.734;2022-09-27T03:07:09;0.60;;;0.50;;
55288;SDS011;41154;45.394;5.734;2022-09-27T03:09:42;0.90;;;0.60;;
55288;SDS011;41154;45.394;5.734;2022-09-27T03:12:10;0.98;;;0.80;;
55288;SDS011;41154;45.394;5.734;2022-09-27T03:14:37;1.10;;;0.80;;
55288;SDS011;41154;45.394;5.734;2022-09-27T03:17:19;0.93;;;0.73;;
55288;SDS011;41154;45.394;5.734;2022-09-27T03:20:04;0.88;;;0.80;;
55288;SDS011;41154;45.394;5.734;2022-09-27T03:22:50;1.00;;;0.82;;
55288;SDS011;41154;45.394;5.734;2022-09-27T03:25:16;2.40;;;0.98;;
55288;SDS011;41154;45.394;5.734;2022-09-27T03:27:42;1.67;;;0.95;;
55288;SDS011;41154;45.394;5.734;2022-09-27T03:30:09;1.40;;;0.90;;
55288;SDS011;41154;45.394;5.734;2022-09-27T03:32:35;0.82;;;0.82;;
55288;SDS011;41154;45.394;5.734;2022-09-27T03:35:24;1.20;;;0.90;;
55288;SDS011;41154;45.394;5.734;2022-09-27T03:37:50;3.30;;;0.88;;
55288;SDS011;41154;45.394;5.734;2022-09-27T03:40:16;0.63;;;0.63;;
55288;SDS011;41154;45.394;5.734;2022-09-27T03:42:42;1.88;;;0.90;;
55288;SDS011;41154;45.394;5.734;2022-09-27T03:45:08;1.30;;;0.80;;
55288;SDS011;41154;45.394;5.734;2022-09-27T03:47:38;2.45;;;0.82;;
55288;SDS011;41154;45.394;5.734;2022-09-27T03:50:06;2.05;;;0.98;;
55288;SDS011;41154;45.394;5.734;2022-09-27T03:52:32;1.98;;;1.20;;
55288;SDS011;41154;45.394;5.734;2022-09-27T03:54:59;1.58;;;0.93;;
55288;SDS011;41154;45.394;5.734;2022-09-27T03:57:25;1.85;;;1.05;;
55288;SDS011;41154;45.394;5.734;2022-09-27T03:59:51;2.78;;;1.00;;
55288;SDS011;41154;45.394;5.734;2022-09-27T04:02:35;2.47;;;1.10;;
55288;SDS011;41154;45.394;5.734;2022-09-27T04:05:19;1.58;;;1.00;;
55288;SDS011;41154;45.394;5.734;2022-09-27T04:07:46;3.33;;;1.25;;
55288;SDS011;41154;45.394;5.734;2022-09-27T04:10:14;1.65;;;1.05;;
55288;SDS011;41154;45.394;5.734;2022-09-27T04:12:40;1.58;;;1.08;;
55288;SDS011;41154;45.394;5.734;2022-09-27T04:15:07;1.30;;;1.15;;
55288;SDS011;41154;45.394;5.734;2022-09-27T04:17:49;1.25;;;1.00;;
55288;SDS011;41154;45.394;5.734;2022-09-27T04:20:33;3.90;;;1.00;;
55288;SDS011;41154;45.394;5.734;2022-09-27T04:23:06;2.05;;;0.80;;
55288;SDS011;41154;45.394;5.734;2022-09-27T04:25:35;2.67;;;1.25;;
55288;SDS011;41154;45.394;5.734;2022-09-27T04:28:07;3.65;;;0.95;;
55288;SDS011;41154;45.394;5.734;2022-09-27T04:30:33;2.97;;;1.13;;
55288;SDS011;41154;45.394;5.734;2022-09-27T04:33:11;2.08;;;1.05;;
55288;SDS011;41154;45.394;5.734;2022-09-27T04:35:56;1.92;;;1.25;;
55288;SDS011;41154;45.394;5.734;2022-09-27T04:38:57;1.98;;;1.15;;
55288;SDS011;41154;45.394;5.734;2022-09-27T04:41:25;4.95;;;1.20;;
55288;SDS011;41154;45.394;5.734;2022-09-27T04:43:55;2.80;;;1.23;;
55288;SDS011;41154;45.394;5.734;2022-09-27T04:46:22;3.83;;;1.20;;
55288;SDS011;41154;45.394;5.734;2022-09-27T04:48:49;8.23;;;1.20;;
55288;SDS011;41154;45.394;5.734;2022-09-27T04:51:16;2.55;;;1.10;;
55288;SDS011;41154;45.394;5.734;2022-09-27T04:53:43;4.13;;;1.40;;
55288;SDS011;41154;45.394;5.734;2022-09-27T04:56:10;1.95;;;1.20;;
55288;SDS011;41154;45.394;5.734;2022-09-27T04:58:37;2.67;;;1.45;;
55288;SDS011;41154;45.394;5.734;2022-09-27T05:01:03;5.03;;;1.65;;
55288;SDS011;41154;45.394;5.734;2022-09-27T05:03:52;2.75;;;1.33;;
55288;SDS011;41154;45.394;5.734;2022-09-27T05:06:18;2.70;;;0.90;;
55288;SDS011;41154;45.394;5.734;2022-09-27T05:08:43;2.53;;;1.20;;
55288;SDS011;41154;45.394;5.734;2022-09-27T05:11:24;5.15;;;1.25;;
55288;SDS011;41154;45.394;5.734;2022-09-27T05:14:09;1.90;;;1.10;;
55288;SDS011;41154;45.394;5.734;2022-09-27T05:16:47;1.55;;;0.82;;
55288;SDS011;41154;45.394;5.734;2022-09-27T05:19:34;3.50;;;1.33;;
55288;SDS011;41154;45.394;5.734;2022-09-27T05:22:16;2.78;;;1.13;;
55288;SDS011;41154;45.394;5.734;2022-09-27T05:24:42;2.78;;;0.93;;
55288;SDS011;41154;45.394;5.734;2022-09-27T05:27:12;2.42;;;0.88;;
55288;SDS011;41154;45.394;5.734;2022-09-27T05:29:43;3.77;;;1.07;;
55288;SDS011;41154;45.394;5.734;2022-09-27T05:32:20;1.80;;;0.82;;
55288;SDS011;41154;45.394;5.734;2022-09-27T05:34:52;4.47;;;0.70;;
55288;SDS011;41154;45.394;5.734;2022-09-27T05:37:18;2.58;;;0.82;;
55288;SDS011;41154;45.394;5.734;2022-09-27T05:39:45;2.80;;;0.70;;
55288;SDS011;41154;45.394;5.734;2022-09-27T05:42:12;2.55;;;1.08;;
55288;SDS011;41154;45.394;5.734;2022-09-27T05:44:40;5.38;;;1.13;;
55288;SDS011;41154;45.394;5.734;2022-09-27T05:47:07;2.20;;;0.98;;
55288;SDS011;41154;45.394;5.734;2022-09-27T05:49:32;6.60;;;1.30;;
55288;SDS011;41154;45.394;5.734;2022-09-27T05:52:00;1.75;;;1.00;;
55288;SDS011;41154;45.394;5.734;2022-09-27T05:54:27;2.72;;;1.25;;
55288;SDS011;41154;45.394;5.734;2022-09-27T05:56:55;3.50;;;1.25;;
55288;SDS011;41154;45.394;5.734;2022-09-27T05:59:45;1.58;;;1.10;;
55288;SDS011;41154;45.394;5.734;2022-09-27T06:02:20;2.53;;;1.15;;
55288;SDS011;41154;45.394;5.734;2022-09-27T06:05:05;2.67;;;1.27;;
55288;SDS011;41154;45.394;5.734;2022-09-27T06:07:50;2.15;;;1.10;;
55288;SDS011;41154;45.394;5.734;2022-09-27T06:10:27;1.98;;;1.17;;
55288;SDS011;41154;45.394;5.734;2022-09-27T06:13:02;3.17;;;1.40;;
55288;SDS011;41154;45.394;5.734;2022-09-27T06:15:33;4.00;;;1.60;;
55288;SDS011;41154;45.394;5.734;2022-09-27T06:18:11;2.58;;;1.50;;
55288;SDS011;41154;45.394;5.734;2022-09-27T06:20:44;3.35;;;1.63;;
55288;SDS011;41154;45.394;5.734;2022-09-27T06:23:15;3.85;;;1.70;;
55288;SDS011;41154;45.394;5.734;2022-09-27T06:25:47;2.72;;;1.65;;
55288;SDS011;41154;45.394;5.734;2022-09-27T06:28:20;5.20;;;2.00;;
55288;SDS011;41154;45.394;5.734;2022-09-27T06:30:51;5.30;;;1.60;;
55288;SDS011;41154;45.394;5.734;2022-09-27T06:33:52;1.50;;;1.08;;
55288;SDS011;41154;45.394;5.734;2022-09-27T06:36:18;4.32;;;1.42;;
55288;SDS011;41154;45.394;5.734;2022-09-27T06:38:45;3.40;;;1.13;;
55288;SDS011;41154;45.394;5.734;2022-09-27T06:41:18;3.83;;;1.23;;
55288;SDS011;41154;45.394;5.734;2022-09-27T06:44:04;5.72;;;1.30;;
55288;SDS011;41154;45.394;5.734;2022-09-27T06:46:49;2.53;;;1.40;;
55288;SDS011;41154;45.394;5.734;2022-09-27T06:49:41;4.95;;;1.80;;
55288;SDS011;41154;45.394;5.734;2022-09-27T06:52:07;5.82;;;1.60;;
55288;SDS011;41154;45.394;5.734;2022-09-27T06:54:33;4.32;;;1.83;;
55288;SDS011;41154;45.394;5.734;2022-09-27T06:56:59;4.88;;;1.73;;
55288;SDS011;41154;45.394;5.734;2022-09-27T06:59:24;7.40;;;1.90;;
55288;SDS011;41154;45.394;5.734;2022-09-27T07:02:28;3.03;;;1.00;;
55288;SDS011;41154;45.394;5.734;2022-09-27T07:05:07;5.18;;;1.30;;
55288;SDS011;41154;45.394;5.734;2022-09-27T07:07:44;8.60;;;2.28;;
55288;SDS011;41154;45.394;5.734;2022-09-27T07:10:12;5.07;;;1.92;;
55288;SDS011;41154;45.394;5.734;2022-09-27T07:12:39;4.82;;;2.05;;
55288;SDS011;41154;45.394;5.734;2022-09-27T07:15:05;6.53;;;2.30;;
55288;SDS011;41154;45.394;5.734;2022-09-27T07:17:31;4.88;;;2.40;;
55288;SDS011;41154;45.394;5.734;2022-09-27T07:19:57;8.45;;;2.65;;
55288;SDS011;41154;45.394;5.734;2022-09-27T07:22:23;6.15;;;2.55;;
55288;SDS011;41154;45.394;5.734;2022-09-27T07:24:57;5.43;;;2.28;;
55288;SDS011;41154;45.394;5.734;2022-09-27T07:27:24;4.00;;;1.50;;
55288;SDS011;41154;45.394;5.734;2022-09-27T07:29:51;3.85;;;1.15;;
55288;SDS011;41154;45.394;5.734;2022-09-27T07:32:17;5.60;;;1.55;;
55288;SDS011;41154;45.394;5.734;2022-09-27T07:34:42;2.65;;;1.38;;
55288;SDS011;41154;45.394;5.734;2022-09-27T07:37:09;3.63;;;1.60;;
55288;SDS011;41154;45.394;5.734;2022-09-27T07:39:38;3.90;;;2.00;;
55288;SDS011;41154;45.394;5.734;2022-09-27T07:42:04;2.67;;;2.05;;
55288;SDS011;41154;45.394;5.734;2022-09-27T07:44:31;7.35;;;2.80;;
55288;SDS011;41154;45.394;5.734;2022-09-27T07:47:21;6.43;;;2.58;;
55288;SDS011;41154;45.394;5.734;2022-09-27T07:50:09;5.05;;;2.83;;
55288;SDS011;41154;45.394;5.734;2022-09-27T07:52:48;4.43;;;2.28;;
55288;SDS011;41154;45.394;5.734;2022-09-27T07:55:32;3.38;;;1.70;;
55288;SDS011;41154;45.394;5.734;2022-09-27T07:58:19;5.07;;;1.38;;
55288;SDS011;41154;45.394;5.734;2022-09-27T08:00:46;8.68;;;1.05;;
55288;SDS011;41154;45.394;5.734;2022-09-27T08:03:14;2.40;;;1.23;;
55288;SDS011;41154;45.394;5.734;2022-09-27T08:05:43;4.38;;;0.88;;
55288;SDS011;41154;45.394;5.734;2022-09-27T08:08:09;5.10;;;1.33;;
55288;SDS011;41154;45.394;5.734;2022-09-27T08:10:35;3.53;;;1.17;;
55288;SDS011;41154;45.394;5.734;2022-09-27T08:13:02;2.78;;;1.10;;
55288;SDS011;41154;45.394;5.734;2022-09-27T08:15:32;2.92;;;1.10;;
55288;SDS011;41154;45.394;5.734;2022-09-27T08:18:04;4.20;;;1.30;;
55288;SDS011;41154;45.394;5.734;2022-09-27T08:20:50;4.55;;;0.98;;
55288;SDS011;41154;45.394;5.734;2022-09-27T08:23:55;1.27;;;0.90;;
55288;SDS011;41154;45.394;5.734;2022-09-27T08:26:30;2.13;;;0.93;;
55288;SDS011;41154;45.394;5.734;2022-09-27T08:29:04;4.32;;;0.70;;
55288;SDS011;41154;45.394;5.734;2022-09-27T08:31:36;4.05;;;0.98;;
55288;SDS011;41154;45.394;5.734;2022-09-27T08:34:02;1.75;;;0.60;;
55288;SDS011;41154;45.394;5.734;2022-09-27T08:36:28;5.75;;;0.80;;
55288;SDS011;41154;45.394;5.734;2022-09-27T08:38:56;3.10;;;1.20;;
55288;SDS011;41154;45.394;5.734;2022-09-27T08:52:02;5.20;;;0.77;;
55288;SDS011;41154;45.394;5.734;2022-09-27T08:54:30;2.58;;;0.77;;
55288;SDS011;41154;45.394;5.734;2022-09-27T08:57:01;4.25;;;0.80;;
55288;SDS011;41154;45.394;5.734;2022-09-27T08:59:33;1.67;;;1.05;;
55288;SDS011;41154;45.394;5.734;2022-09-27T09:02:03;2.92;;;0.77;;
55288;SDS011;41154;45.394;5.734;2022-09-27T09:04:42;2.97;;;0.80;;
55288;SDS011;41154;45.394;5.734;2022-09-27T09:07:26;2.65;;;0.98;;
55288;SDS011;41154;45.394;5.734;2022-09-27T09:35:01;5.13;;;0.70;;
55288;SDS011;41154;45.394;5.734;2022-09-27T09:42:48;5.35;;;0.70;;
55288;SDS011;41154;45.394;5.734;2022-09-27T09:48:02;2.63;;;0.60;;
55288;SDS011;41154;45.394;5.734;2022-09-27T09:50:50;2.38;;;0.60;;
55288;SDS011;41154;45.394;5.734;2022-09-27T09:56:29;1.40;;;0.68;;
55288;SDS011;41154;45.394;5.734;2022-09-27T10:01:42;1.42;;;0.60;;
55288;SDS011;41154;45.394;5.734;2022-09-27T10:04:17;1.50;;;0.90;;
55288;SDS011;41154;45.394;5.734;2022-09-27T10:06:50;6.63;;;1.67;;
55288;SDS011;41154;45.394;5.734;2022-09-27T10:09:20;4.53;;;1.20;;
55288;SDS011;41154;45.394;5.734;2022-09-27T10:12:11;6.13;;;1.65;;
55288;SDS011;41154;45.394;5.734;2022-09-27T10:14:38;3.97;;;0.98;;
55288;SDS011;41154;45.394;5.734;2022-09-27T10:17:08;5.28;;;1.02;;
55288;SDS011;41154;45.394;5.734;2022-09-27T10:19:39;5.63;;;1.15;;
55288;SDS011;41154;45.394;5.734;2022-09-27T10:22:10;2.10;;;1.10;;
55288;SDS011;41154;45.394;5.734;2022-09-27T10:24:53;4.68;;;1.65;;
55288;SDS011;41154;45.394;5.734;2022-09-27T10:27:45;6.45;;;1.20;;
55288;SDS011;41154;45.394;5.734;2022-09-27T10:33:03;2.50;;;0.75;;
55288;SDS011;41154;45.394;5.734;2022-09-27T10:35:44;1.92;;;0.60;;
55288;SDS011;41154;45.394;5.734;2022-09-27T10:38:25;3.85;;;1.38;;
55288;SDS011;41154;45.394;5.734;2022-09-27T10:46:44;3.60;;;0.70;;
55288;SDS011;41154;45.394;5.734;2022-09-27T10:49:35;1.02;;;0.73;;
55288;SDS011;41154;45.394;5.734;2022-09-27T10:52:18;2.08;;;0.93;;
55288;SDS011;41154;45.394;5.734;2022-09-27T10:55:07;1.88;;;0.80;;
55288;SDS011;41154;45.394;5.734;2022-09-27T10:57:51;4.03;;;0.90;;
55288;SDS011;41154;45.394;5.734;2022-09-27T11:00:20;2.35;;;0.90;;
55288;SDS011;41154;45.394;5.734;2022-09-27T11:02:53;1.73;;;0.90;;
55288;SDS011;41154;45.394;5.734;2022-09-27T11:22:10;3.70;;;0.60;;
55288;SDS011;41154;45.394;5.734;2022-09-27T11:30:49;1.48;;;0.70;;
55288;SDS011;41154;45.394;5.734;2022-09-27T11:33:41;2.83;;;0.90;;
55288;SDS011;41154;45.394;5.734;2022-09-27T11:36:18;5.18;;;0.88;;
55288;SDS011;41154;45.394;5.734;2022-09-27T11:39:17;2.10;;;0.75;;
55288;SDS011;41154;45.394;5.734;2022-09-27T11:42:07;3.17;;;1.00;;
55288;SDS011;41154;45.394;5.734;2022-09-27T11:48:22;3.63;;;1.10;;
55288;SDS011;41154;45.394;5.734;2022-09-27T12:09:31;3.53;;;0.77;;
55288;SDS011;41154;45.394;5.734;2022-09-27T12:12:05;3.78;;;0.90;;
55288;SDS011;41154;45.394;5.734;2022-09-27T12:14:41;2.83;;;0.77;;
55288;SDS011;41154;45.394;5.734;2022-09-27T12:17:18;2.13;;;0.70;;
55288;SDS011;41154;45.394;5.734;2022-09-27T12:19:51;0.98;;;0.60;;
55288;SDS011;41154;45.394;5.734;2022-09-27T12:22:30;1.35;;;0.70;;
55288;SDS011;41154;45.394;5.734;2022-09-27T12:24:59;3.10;;;0.80;;
55288;SDS011;41154;45.394;5.734;2022-09-27T12:27:50;2.42;;;0.93;;
55288;SDS011;41154;45.394;5.734;2022-09-27T12:30:21;5.13;;;1.10;;
55288;SDS011;41154;45.394;5.734;2022-09-27T12:35:45;1.33;;;0.77;;
55288;SDS011;41154;45.394;5.734;2022-09-27T12:38:19;2.10;;;0.90;;
55288;SDS011;41154;45.394;5.734;2022-09-27T12:40:51;1.40;;;0.70;;
55288;SDS011;41154;45.394;5.734;2022-09-27T12:43:29;5.70;;;2.60;;
55288;SDS011;41154;45.394;5.734;2022-09-27T12:51:35;2.55;;;1.25;;
55288;SDS011;41154;45.394;5.734;2022-09-27T13:07:09;1.55;;;0.70;;
55288;SDS011;41154;45.394;5.734;2022-09-27T13:10:00;2.10;;;1.17;;
55288;SDS011;41154;45.394;5.734;2022-09-27T13:12:48;5.75;;;1.40;;
55288;SDS011;41154;45.394;5.734;2022-09-27T13:15:33;6.03;;;1.13;;
55288;SDS011;41154;45.394;5.734;2022-09-27T13:18:01;1.90;;;1.00;;
55288;SDS011;41154;45.394;5.734;2022-09-27T13:20:39;1.90;;;0.98;;
55288;SDS011;41154;45.394;5.734;2022-09-27T13:26:41;4.50;;;0.90;;
55288;SDS011;41154;45.394;5.734;2022-09-27T13:29:21;1.50;;;0.90;;
55288;SDS011;41154;45.394;5.734;2022-09-27T13:34:39;2.42;;;0.82;;
55288;SDS011;41154;45.394;5.734;2022-09-27T13:45:59;3.30;;;1.20;;
55288;SDS011;41154;45.394;5.734;2022-09-27T13:48:49;1.90;;;0.68;;
55288;SDS011;41154;45.394;5.734;2022-09-27T13:51:42;2.03;;;0.77;;
55288;SDS011;41154;45.394;5.734;2022-09-27T14:00:17;1.48;;;0.63;;
55288;SDS011;41154;45.394;5.734;2022-09-27T14:02:57;0.82;;;0.60;;
55288;SDS011;41154;45.394;5.734;2022-09-27T14:05:34;2.40;;;0.60;;
55288;SDS011;41154;45.394;5.734;2022-09-27T14:08:06;0.50;;;0.40;;
55288;SDS011;41154;45.394;5.734;2022-09-27T14:10:42;0.68;;;0.40;;
55288;SDS011;41154;45.394;5.734;2022-09-27T14:13:08;0.63;;;0.40;;
55288;SDS011;41154;45.394;5.734;2022-09-27T14:15:47;1.83;;;0.47;;
55288;SDS011;41154;45.394;5.734;2022-09-27T14:18:14;1.65;;;0.40;;
55288;SDS011;41154;45.394;5.734;2022-09-27T14:20:42;0.38;;;0.30;;
55288;SDS011;41154;45.394;5.734;2022-09-27T14:23:24;2.80;;;0.30;;
55288;SDS011;41154;45.394;5.734;2022-09-27T14:25:51;0.43;;;0.40;;
55288;SDS011;41154;45.394;5.734;2022-09-27T14:28:21;2.58;;;0.55;;
55288;SDS011;41154;45.394;5.734;2022-09-27T14:31:15;0.38;;;0.30;;
55288;SDS011;41154;45.394;5.734;2022-09-27T14:34:05;1.13;;;0.63;;
55288;SDS011;41154;45.394;5.734;2022-09-27T14:36:37;1.83;;;0.40;;
55288;SDS011;41154;45.394;5.734;2022-09-27T14:39:30;1.58;;;0.47;;
55288;SDS011;41154;45.394;5.734;2022-09-27T14:42:01;0.60;;;0.43;;
55288;SDS011;41154;45.394;5.734;2022-09-27T14:44:42;1.33;;;0.40;;
55288;SDS011;41154;45.394;5.734;2022-09-27T14:47:27;1.70;;;0.65;;
55288;SDS011;41154;45.394;5.734;2022-09-27T14:49:55;0.68;;;0.40;;
55288;SDS011;41154;45.394;5.734;2022-09-27T14:52:37;0.50;;;0.32;;
55288;SDS011;41154;45.394;5.734;2022-09-27T14:55:14;0.98;;;0.60;;
55288;SDS011;41154;45.394;5.734;2022-09-27T14:57:49;2.92;;;0.73;;
55288;SDS011;41154;45.394;5.734;2022-09-27T15:00:22;0.98;;;0.40;;
55288;SDS011;41154;45.394;5.734;2022-09-27T15:02:51;1.08;;;0.50;;
55288;SDS011;41154;45.394;5.734;2022-09-27T15:05:20;0.55;;;0.40;;
55288;SDS011;41154;45.394;5.734;2022-09-27T15:07:49;1.48;;;0.30;;
55288;SDS011;41154;45.394;5.734;2022-09-27T15:10:19;0.70;;;0.20;;
55288;SDS011;41154;45.394;5.734;2022-09-27T15:12:47;1.00;;;0.50;;
55288;SDS011;41154;45.394;5.734;2022-09-27T15:15:17;0.30;;;0.28;;
55288;SDS011;41154;45.394;5.734;2022-09-27T15:17:45;0.50;;;0.40;;
55288;SDS011;41154;45.394;5.734;2022-09-27T15:20:23;0.50;;;0.30;;
55288;SDS011;41154;45.394;5.734;2022-09-27T15:22:51;0.98;;;0.40;;
55288;SDS011;41154;45.394;5.734;2022-09-27T15:25:25;0.40;;;0.40;;
55288;SDS011;41154;45.394;5.734;2022-09-27T15:28:15;0.68;;;0.30;;
55288;SDS011;41154;45.394;5.734;2022-09-27T15:31:16;1.38;;;0.43;;
55288;SDS011;41154;45.394;5.734;2022-09-27T15:33:35;0.43;;;0.35;;
55288;SDS011;41154;45.394;5.734;2022-09-27T15:36:03;0.85;;;0.40;;
55288;SDS011;41154;45.394;5.734;2022-09-27T15:38:32;0.30;;;0.30;;
55288;SDS011;41154;45.394;5.734;2022-09-27T15:41:13;0.73;;;0.38;;
55288;SDS011;41154;45.394;5.734;2022-09-27T15:43:44;1.00;;;0.60;;
55288;SDS011;41154;45.394;5.734;2022-09-27T15:52:06;0.55;;;0.45;;
55288;SDS011;41154;45.394;5.734;2022-09-27T15:55:10;2.05;;;0.50;;
55288;SDS011;41154;45.394;5.734;2022-09-27T15:57:37;0.40;;;0.30;;
55288;SDS011;41154;45.394;5.734;2022-09-27T16:00:04;2.88;;;0.60;;
55288;SDS011;41154;45.394;5.734;2022-09-27T16:02:37;1.23;;;0.45;;
55288;SDS011;41154;45.394;5.734;2022-09-27T16:05:02;2.20;;;0.45;;
55288;SDS011;41154;45.394;5.734;2022-09-27T16:07:28;0.80;;;0.40;;
55288;SDS011;41154;45.394;5.734;2022-09-27T16:09:54;0.75;;;0.40;;
55288;SDS011;41154;45.394;5.734;2022-09-27T16:12:20;0.70;;;0.30;;
55288;SDS011;41154;45.394;5.734;2022-09-27T16:14:46;0.98;;;0.50;;
55288;SDS011;41154;45.394;5.734;2022-09-27T16:17:12;1.80;;;0.55;;
55288;SDS011;41154;45.394;5.734;2022-09-27T16:19:38;1.55;;;0.75;;
55288;SDS011;41154;45.394;5.734;2022-09-27T16:22:04;3.88;;;0.98;;
55288;SDS011;41154;45.394;5.734;2022-09-27T16:24:30;1.05;;;0.60;;
55288;SDS011;41154;45.394;5.734;2022-09-27T16:26:57;0.73;;;0.52;;
55288;SDS011;41154;45.394;5.734;2022-09-27T16:29:23;1.45;;;0.70;;
55288;SDS011;41154;45.394;5.734;2022-09-27T16:31:48;4.03;;;0.80;;
55288;SDS011;41154;45.394;5.734;2022-09-27T16:34:15;1.67;;;0.80;;
55288;SDS011;41154;45.394;5.734;2022-09-27T16:36:41;1.02;;;0.75;;
55288;SDS011;41154;45.394;5.734;2022-09-27T16:39:09;1.42;;;0.90;;
55288;SDS011;41154;45.394;5.734;2022-09-27T16:41:39;0.75;;;0.60;;
55288;SDS011;41154;45.394;5.734;2022-09-27T16:44:08;1.05;;;0.73;;
55288;SDS011;41154;45.394;5.734;2022-09-27T16:46:40;1.83;;;0.80;;
55288;SDS011;41154;45.394;5.734;2022-09-27T16:49:06;5.97;;;0.82;;
55288;SDS011;41154;45.394;5.734;2022-09-27T16:51:55;1.77;;;0.68;;
55288;SDS011;41154;45.394;5.734;2022-09-27T16:54:23;2.97;;;0.73;;
55288;SDS011;41154;45.394;5.734;2022-09-27T16:56:50;1.95;;;0.75;;
55288;SDS011;41154;45.394;5.734;2022-09-27T16:59:15;1.25;;;0.80;;
55288;SDS011;41154;45.394;5.734;2022-09-27T17:01:41;1.73;;;1.00;;
55288;SDS011;41154;45.394;5.734;2022-09-27T17:04:07;2.08;;;0.95;;
55288;SDS011;41154;45.394;5.734;2022-09-27T17:06:33;2.22;;;1.00;;
55288;SDS011;41154;45.394;5.734;2022-09-27T17:09:00;3.40;;;2.10;;
55288;SDS011;41154;45.394;5.734;2022-09-27T17:11:28;3.97;;;1.90;;
55288;SDS011;41154;45.394;5.734;2022-09-27T17:13:54;2.47;;;1.02;;
55288;SDS011;41154;45.394;5.734;2022-09-27T17:16:20;1.58;;;1.10;;
55288;SDS011;41154;45.394;5.734;2022-09-27T17:18:47;1.80;;;1.30;;
55288;SDS011;41154;45.394;5.734;2022-09-27T17:21:13;1.77;;;1.27;;
55288;SDS011;41154;45.394;5.734;2022-09-27T17:23:39;6.15;;;1.35;;
55288;SDS011;41154;45.394;5.734;2022-09-27T17:26:26;2.28;;;1.70;;
55288;SDS011;41154;45.394;5.734;2022-09-27T17:28:55;1.15;;;0.70;;
55288;SDS011;41154;45.394;5.734;2022-09-27T17:31:25;1.65;;;1.00;;
55288;SDS011;41154;45.394;5.734;2022-09-27T17:33:52;2.72;;;0.90;;
55288;SDS011;41154;45.394;5.734;2022-09-27T17:36:23;3.05;;;1.75;;
55288;SDS011;41154;45.394;5.734;2022-09-27T17:38:50;2.85;;;1.58;;
55288;SDS011;41154;45.394;5.734;2022-09-27T17:41:17;2.53;;;1.75;;
55288;SDS011;41154;45.394;5.734;2022-09-27T17:43:45;5.30;;;1.77;;
55288;SDS011;41154;45.394;5.734;2022-09-27T17:46:15;2.20;;;0.85;;
55288;SDS011;41154;45.394;5.734;2022-09-27T17:48:46;3.33;;;1.05;;
55288;SDS011;41154;45.394;5.734;2022-09-27T17:51:32;1.25;;;0.93;;
55288;SDS011;41154;45.394;5.734;2022-09-27T17:54:01;2.45;;;1.40;;
55288;SDS011;41154;45.394;5.734;2022-09-27T17:56:29;4.20;;;1.38;;
55288;SDS011;41154;45.394;5.734;2022-09-27T17:58:57;4.40;;;1.40;;
55288;SDS011;41154;45.394;5.734;2022-09-27T18:01:24;3.83;;;1.48;;
55288;SDS011;41154;45.394;5.734;2022-09-27T18:03:53;1.50;;;1.10;;
55288;SDS011;41154;45.394;5.734;2022-09-27T18:06:21;2.85;;;1.10;;
55288;SDS011;41154;45.394;5.734;2022-09-27T18:08:48;1.55;;;1.05;;
55288;SDS011;41154;45.394;5.734;2022-09-27T18:11:15;5.43;;;1.30;;
55288;SDS011;41154;45.394;5.734;2022-09-27T18:13:47;3.30;;;1.30;;
55288;SDS011;41154;45.394;5.734;2022-09-27T18:16:14;1.58;;;0.95;;
55288;SDS011;41154;45.394;5.734;2022-09-27T18:18:42;2.40;;;1.15;;
55288;SDS011;41154;45.394;5.734;2022-09-27T18:21:09;1.52;;;0.95;;
55288;SDS011;41154;45.394;5.734;2022-09-27T18:23:41;2.53;;;1.08;;
55288;SDS011;41154;45.394;5.734;2022-09-27T18:26:09;3.17;;;1.58;;
55288;SDS011;41154;45.394;5.734;2022-09-27T18:28:36;5.55;;;1.90;;
55288;SDS011;41154;45.394;5.734;2022-09-27T18:31:06;2.83;;;1.20;;
55288;SDS011;41154;45.394;5.734;2022-09-27T18:33:34;3.05;;;1.40;;
55288;SDS011;41154;45.394;5.734;2022-09-27T18:36:08;3.28;;;1.52;;
55288;SDS011;41154;45.394;5.734;2022-09-27T18:38:35;1.75;;;1.27;;
55288;SDS011;41154;45.394;5.734;2022-09-27T18:41:10;4.50;;;1.15;;
55288;SDS011;41154;45.394;5.734;2022-09-27T18:43:38;3.28;;;1.67;;
55288;SDS011;41154;45.394;5.734;2022-09-27T18:46:05;2.60;;;1.50;;